createdAt,value
2022-11-12T00:00:20.685Z,101443.47
2022-11-12T00:03:06.252Z,101453.19
2022-11-12T00:05:51.477Z,101443.84
2022-11-12T00:08:37.153Z,101380.56
2022-11-12T00:11:22.380Z,101413.97
2022-11-12T00:14:07.971Z,101427.84
2022-11-12T00:16:53.678Z,101424.34
2022-11-12T00:19:39.223Z,101441.81
2022-11-12T00:22:24.513Z,101446.13
2022-11-12T00:25:10.583Z,101442.81
2022-11-12T00:28:05.461Z,101449.38
2022-11-12T00:30:50.687Z,101416.47
2022-11-12T00:33:40.575Z,101309.69
2022-11-12T00:36:26.318Z,101423.75
2022-11-12T00:39:11.842Z,101444.19
2022-11-12T00:41:57.215Z,101443.34
2022-11-12T00:44:42.312Z,101379.88
2022-11-12T00:47:27.881Z,101458.00
2022-11-12T00:50:13.324Z,101385.03
2022-11-12T00:52:58.738Z,101433.66
2022-11-12T00:55:43.943Z,101461.03
2022-11-12T00:58:34.915Z,101432.53
2022-11-12T01:01:21.007Z,101448.41
2022-11-12T01:04:06.876Z,101444.75
2022-11-12T01:06:51.970Z,101429.44
2022-11-12T01:09:37.201Z,101436.28
2022-11-12T01:12:22.526Z,101425.88
2022-11-12T01:15:08.717Z,101433.81
2022-11-12T01:17:53.809Z,101438.75
2022-11-12T01:20:39.398Z,101439.06
2022-11-12T01:23:24.579Z,101453.09
2022-11-12T01:26:12.862Z,101438.88
2022-11-12T01:28:58.149Z,101433.34
2022-11-12T01:31:43.435Z,101394.38
2022-11-12T01:34:28.785Z,101434.84
2022-11-12T01:37:13.903Z,101440.22
2022-11-12T01:39:58.975Z,101454.38
2022-11-12T01:42:51.584Z,101444.28
2022-11-12T01:45:40.159Z,101439.16
2022-11-12T01:48:27.957Z,101444.94
2022-11-12T01:51:15.133Z,101450.94
2022-11-12T01:54:06.995Z,101449.16
2022-11-12T01:56:52.680Z,101423.47
2022-11-12T01:59:43.808Z,101424.81
2022-11-12T02:02:31.051Z,101436.81
2022-11-12T02:05:18.218Z,101441.53
2022-11-12T02:08:05.651Z,101442.47
2022-11-12T02:10:51.151Z,101418.97
2022-11-12T02:13:55.216Z,101433.28
2022-11-12T02:16:43.007Z,101443.56
2022-11-12T02:19:28.217Z,101446.63
2022-11-12T02:22:13.712Z,101433.31
2022-11-12T02:24:59.005Z,101445.69
2022-11-12T02:27:45.056Z,101440.53
2022-11-12T02:30:46.300Z,101422.78
2022-11-12T02:33:31.589Z,101432.88
2022-11-12T02:36:16.856Z,101373.56
2022-11-12T02:39:02.186Z,101441.69
2022-11-12T02:41:47.430Z,101345.31
2022-11-12T02:44:33.027Z,101420.16
2022-11-12T02:47:18.182Z,101433.50
2022-11-12T02:50:04.933Z,101429.31
2022-11-12T02:52:50.406Z,101425.44
2022-11-12T02:55:35.879Z,101419.44
2022-11-12T02:58:22.578Z,101420.19
2022-11-12T03:01:07.705Z,101397.38
2022-11-12T03:03:52.999Z,101428.69
2022-11-12T03:06:39.535Z,101413.03
2022-11-12T03:09:24.701Z,101423.19
2022-11-12T03:12:10.046Z,101426.88
2022-11-12T03:14:55.198Z,101426.38
2022-11-12T03:17:40.602Z,101348.88
2022-11-12T03:20:26.831Z,101407.53
2022-11-12T03:23:12.095Z,101433.69
2022-11-12T03:25:57.386Z,101393.25
2022-11-12T03:28:42.818Z,101379.22
2022-11-12T03:31:28.247Z,101420.06
2022-11-12T03:34:13.690Z,101430.16
2022-11-12T03:36:58.796Z,101423.84
2022-11-12T03:39:43.879Z,101426.88
2022-11-12T03:42:28.984Z,101417.19
2022-11-12T03:45:15.026Z,101394.66
2022-11-12T03:48:00.504Z,101405.56
2022-11-12T03:50:45.921Z,101422.25
2022-11-12T03:53:31.179Z,101413.44
2022-11-12T03:56:16.651Z,101407.47
2022-11-12T03:59:01.959Z,101422.47
2022-11-12T04:01:47.352Z,101421.94
2022-11-12T04:04:51.139Z,101427.00
2022-11-12T04:07:55.355Z,101427.22
2022-11-12T04:10:40.692Z,101424.78
2022-11-12T04:13:28.718Z,101411.81
2022-11-12T04:16:34.971Z,101408.78
2022-11-12T04:19:38.947Z,101425.94
2022-11-12T04:22:24.214Z,101423.00
2022-11-12T04:25:27.860Z,101391.31
2022-11-12T04:28:13.140Z,101429.00
2022-11-12T04:30:58.294Z,101417.22
2022-11-12T04:33:43.568Z,101425.94
2022-11-12T04:36:28.657Z,101441.69
2022-11-12T04:39:13.928Z,101431.94
2022-11-12T04:42:17.696Z,101442.34
2022-11-12T04:45:06.950Z,101438.84
2022-11-12T04:47:52.062Z,101420.91
2022-11-12T04:50:37.564Z,101421.09
2022-11-12T04:53:23.809Z,101419.31
2022-11-12T04:56:09.067Z,101439.81
2022-11-12T04:58:54.255Z,101419.31
2022-11-12T05:01:39.645Z,101412.09
2022-11-12T05:04:27.640Z,101419.72
2022-11-12T05:07:13.986Z,101424.47
2022-11-12T05:09:59.310Z,101428.97
2022-11-12T05:12:44.682Z,101406.78
2022-11-12T05:15:30.027Z,101405.41
2022-11-12T05:18:15.333Z,101429.72
2022-11-12T05:21:20.324Z,101446.00
2022-11-12T05:24:06.251Z,101422.38
2022-11-12T05:26:51.731Z,101431.63
2022-11-12T05:29:37.020Z,101443.13
2022-11-12T05:32:22.252Z,101428.41
2022-11-12T05:35:07.820Z,101437.16
2022-11-12T05:37:53.157Z,101429.16
2022-11-12T05:40:38.273Z,101424.13
2022-11-12T05:43:23.673Z,101429.16
2022-11-12T05:46:09.870Z,101438.56
2022-11-12T05:48:55.244Z,101422.59
2022-11-12T05:51:40.265Z,101392.28
2022-11-12T05:54:25.418Z,101417.72
2022-11-12T05:57:10.808Z,101438.75
2022-11-12T05:59:56.320Z,101428.03
2022-11-12T06:02:43.024Z,101436.13
2022-11-12T06:05:28.268Z,101455.56
2022-11-12T06:08:13.330Z,101439.59
2022-11-12T06:10:58.359Z,101456.94
2022-11-12T06:13:43.927Z,101423.09
2022-11-12T06:16:29.744Z,101436.03
2022-11-12T06:19:14.878Z,101453.88
2022-11-12T06:22:00.395Z,101457.56
2022-11-12T06:24:46.131Z,101426.47
2022-11-12T06:27:32.215Z,101446.06
2022-11-12T06:30:17.534Z,101478.22
2022-11-12T06:33:03.766Z,101440.59
2022-11-12T06:35:56.992Z,101466.69
2022-11-12T06:38:42.936Z,101456.94
2022-11-12T06:41:28.123Z,101455.06
2022-11-12T06:44:14.682Z,101447.16
2022-11-12T06:47:03.278Z,101461.66
2022-11-12T06:49:48.481Z,101457.88
2022-11-12T06:52:33.939Z,101310.97
2022-11-12T06:55:19.423Z,101457.56
2022-11-12T06:58:04.666Z,101455.88
2022-11-12T07:00:50.029Z,101457.72
2022-11-12T07:03:35.627Z,101452.38
2022-11-12T07:06:21.071Z,101413.84
2022-11-12T07:09:07.222Z,101450.81
2022-11-12T07:11:52.421Z,101401.13
2022-11-12T07:14:37.598Z,101441.47
2022-11-12T07:17:22.897Z,101362.81
2022-11-12T07:20:08.961Z,101396.84
2022-11-12T07:22:54.034Z,101445.91
2022-11-12T07:25:39.251Z,101418.69
2022-11-12T07:28:25.511Z,101442.13
2022-11-12T07:31:13.160Z,101440.50
2022-11-12T07:33:58.691Z,101430.97
2022-11-12T07:36:44.057Z,101416.00
2022-11-12T07:39:29.535Z,101388.16
2022-11-12T07:42:14.991Z,101408.28
2022-11-12T07:45:00.141Z,101384.22
2022-11-12T07:47:45.630Z,101439.72
2022-11-12T07:50:31.105Z,101419.59
2022-11-12T07:53:16.258Z,101409.66
2022-11-12T07:56:04.432Z,101415.63
2022-11-12T07:58:50.467Z,101403.16
2022-11-12T08:01:40.911Z,101411.91
2022-11-12T08:04:26.273Z,101411.53
2022-11-12T08:07:11.728Z,101401.63
2022-11-12T08:09:56.959Z,101394.06
2022-11-12T08:12:42.296Z,101408.13
2022-11-12T08:15:27.376Z,101412.72
2022-11-12T08:18:13.066Z,101390.31
2022-11-12T08:21:02.895Z,101389.69
2022-11-12T08:23:48.489Z,101405.69
2022-11-12T08:26:33.892Z,101382.94
2022-11-12T08:29:18.902Z,101369.19
2022-11-12T08:32:04.152Z,101372.22
2022-11-12T08:34:49.284Z,101385.81
2022-11-12T08:37:34.311Z,101385.38
2022-11-12T08:40:19.697Z,101377.69
2022-11-12T08:43:07.300Z,101356.81
2022-11-12T08:45:52.645Z,101360.28
2022-11-12T08:48:39.980Z,101334.75
2022-11-12T08:51:25.672Z,101361.78
2022-11-12T08:54:11.146Z,101367.84
2022-11-12T08:56:56.268Z,101329.44
2022-11-12T08:59:42.139Z,101336.31
2022-11-12T09:02:27.891Z,101341.97
2022-11-12T09:05:13.544Z,101344.38
2022-11-12T09:08:01.229Z,101362.41
2022-11-12T09:10:47.659Z,101358.88
2022-11-12T09:13:34.126Z,101356.22
2022-11-12T09:16:21.321Z,101351.63
2022-11-12T09:19:07.200Z,101357.91
2022-11-12T09:21:53.039Z,101337.97
2022-11-12T09:24:39.003Z,101338.94
2022-11-12T09:27:27.537Z,101329.00
2022-11-12T09:30:14.460Z,101346.19
2022-11-12T09:33:00.240Z,101359.72
2022-11-12T09:35:46.846Z,101353.88
2022-11-12T09:38:33.441Z,101359.03
2022-11-12T09:41:33.876Z,101353.72
2022-11-12T09:44:22.115Z,101334.50
2022-11-12T09:47:25.023Z,101365.56
2022-11-12T09:50:31.944Z,101365.28
2022-11-12T09:53:33.210Z,101337.69
2022-11-12T09:56:21.753Z,101360.81
2022-11-12T09:59:13.687Z,101341.41
2022-11-12T10:02:37.528Z,101336.72
2022-11-12T10:05:36.608Z,101310.41
2022-11-12T10:08:46.910Z,101332.41
2022-11-12T10:12:10.799Z,101333.91
2022-11-12T10:15:49.969Z,101322.59
2022-11-12T10:19:16.801Z,101330.13
2022-11-12T10:22:20.598Z,101318.81
2022-11-12T10:25:32.812Z,101322.88
2022-11-12T10:28:26.951Z,101312.31
2022-11-12T10:31:16.465Z,101308.19
2022-11-12T10:34:29.289Z,101300.78
2022-11-12T10:37:24.640Z,101303.00
2022-11-12T10:40:24.919Z,101288.94
2022-11-12T10:43:15.854Z,101279.97
2022-11-12T10:46:24.583Z,101259.75
2022-11-12T10:49:16.308Z,101271.31
2022-11-12T10:52:01.292Z,101263.81
2022-11-12T10:54:50.924Z,101195.94
2022-11-12T10:57:39.470Z,101231.47
2022-11-12T11:00:25.363Z,101237.78
2022-11-12T11:03:22.356Z,101183.47
2022-11-12T11:06:25.930Z,101215.28
2022-11-12T11:09:18.017Z,101242.94
2022-11-12T11:12:03.609Z,101243.16
2022-11-12T11:15:07.423Z,101250.91
2022-11-12T11:17:52.753Z,101249.41
2022-11-12T11:20:47.468Z,101231.41
2022-11-12T11:23:40.417Z,101240.94
2022-11-12T11:26:47.208Z,101241.66
2022-11-12T11:29:48.741Z,101234.19
2022-11-12T11:33:00.818Z,101256.28
2022-11-12T11:36:10.309Z,101232.66
2022-11-12T11:39:15.333Z,101233.47
2022-11-12T11:42:38.037Z,101219.91
2022-11-12T11:45:31.661Z,101231.16
2022-11-12T11:48:29.081Z,101218.19
2022-11-12T11:51:26.543Z,101213.06
2022-11-12T11:54:17.474Z,101204.28
2022-11-12T11:57:12.511Z,101192.91
2022-11-12T12:00:29.305Z,101202.53
2022-11-12T12:03:19.864Z,101197.88
2022-11-12T12:06:12.311Z,101197.66
2022-11-12T12:09:10.534Z,101193.81
2022-11-12T12:12:15.198Z,101215.63
2022-11-12T12:15:15.875Z,101209.94
2022-11-12T12:18:04.048Z,101195.44
2022-11-12T12:21:23.206Z,101173.31
2022-11-12T12:24:36.082Z,101191.41
2022-11-12T12:27:26.049Z,101186.38
2022-11-12T12:30:22.557Z,101194.91
2022-11-12T12:33:22.979Z,101180.34
2022-11-12T12:36:19.368Z,101123.50
2022-11-12T12:39:25.061Z,101159.72
2022-11-12T12:42:18.561Z,101173.63
2022-11-12T12:45:24.871Z,101163.09
2022-11-12T12:48:24.544Z,101160.75
2022-11-12T12:51:10.141Z,101156.47
2022-11-12T12:53:55.432Z,101151.72
2022-11-12T12:56:47.194Z,101149.47
2022-11-12T12:59:32.641Z,101117.41
2022-11-12T13:02:24.422Z,101130.50
2022-11-12T13:05:32.943Z,101133.31
2022-11-12T13:08:26.276Z,101138.25
2022-11-12T13:11:57.882Z,101133.66
2022-11-12T13:14:43.146Z,101125.47
2022-11-12T13:17:47.292Z,101128.38
2022-11-12T13:20:36.110Z,101127.53
2022-11-12T13:24:07.420Z,101062.56
2022-11-12T13:26:58.220Z,101128.69
2022-11-12T13:29:44.560Z,101115.72
2022-11-12T13:32:34.009Z,101101.13
2022-11-12T13:35:22.068Z,101119.28
2022-11-12T13:38:13.106Z,101122.47
2022-11-12T13:41:43.067Z,101108.84
2022-11-12T13:44:29.337Z,101123.81
2022-11-12T13:47:18.576Z,101125.34
2022-11-12T13:50:08.506Z,101127.66
2022-11-12T13:52:54.145Z,101135.16
2022-11-12T13:55:49.224Z,101110.03
2022-11-12T13:58:36.625Z,101138.63
2022-11-12T14:01:24.096Z,101115.69
2022-11-12T14:04:18.817Z,101100.38
2022-11-12T14:07:23.677Z,101132.47
2022-11-12T14:10:35.745Z,101007.75
2022-11-12T14:13:37.760Z,101128.13
2022-11-12T14:16:34.986Z,101128.47
2022-11-12T14:19:25.963Z,101115.84
2022-11-12T14:22:13.829Z,101137.78
2022-11-12T14:25:01.262Z,101128.47
2022-11-12T14:27:48.095Z,101119.13
2022-11-12T14:30:33.240Z,101128.56
2022-11-12T14:33:21.223Z,101114.91
2022-11-12T14:36:10.250Z,101120.75
2022-11-12T14:38:57.546Z,101057.78
2022-11-12T14:41:43.102Z,101164.91
2022-11-12T14:44:37.718Z,101132.59
2022-11-12T14:47:24.126Z,101148.81
2022-11-12T14:50:26.443Z,101149.19
2022-11-12T14:53:24.518Z,101161.53
2022-11-12T14:56:35.392Z,101155.97
2022-11-12T14:59:21.230Z,101162.06
2022-11-12T15:02:42.627Z,101158.72
2022-11-12T15:05:23.421Z,101147.81
2022-11-12T15:08:12.208Z,101147.34
2022-11-12T15:11:20.303Z,101131.94
2022-11-12T15:14:13.656Z,101129.66
2022-11-12T15:17:00.565Z,101149.88
2022-11-12T15:19:45.713Z,101159.13
2022-11-12T15:22:31.724Z,101115.81
2022-11-12T15:25:17.473Z,101163.41
2022-11-12T15:28:22.844Z,101152.47
2022-11-12T15:31:21.017Z,101165.31
2022-11-12T15:34:25.245Z,101129.00
2022-11-12T15:37:20.510Z,101167.00
2022-11-12T15:40:12.422Z,101161.84
2022-11-12T15:42:58.342Z,101162.38
2022-11-12T15:45:43.837Z,101171.28
2022-11-12T15:48:29.264Z,101121.34
2022-11-12T15:51:16.151Z,101186.88
2022-11-12T15:54:01.525Z,101200.19
2022-11-12T15:56:47.715Z,101198.72
2022-11-12T15:59:33.119Z,101172.81
2022-11-12T16:02:18.396Z,101175.34
2022-11-12T16:05:03.486Z,101150.03
2022-11-12T16:07:48.709Z,101181.41
2022-11-12T16:10:34.398Z,101183.38
2022-11-12T16:13:32.040Z,101191.59
2022-11-12T16:16:17.516Z,101143.00
2022-11-12T16:19:03.012Z,101134.91
2022-11-12T16:21:48.353Z,101141.53
2022-11-12T16:24:33.523Z,101169.06
2022-11-12T16:27:20.446Z,101144.31
2022-11-12T16:30:27.562Z,101167.28
2022-11-12T16:33:14.231Z,101173.41
2022-11-12T16:35:59.381Z,101159.59
2022-11-12T16:38:46.066Z,101124.00
2022-11-12T16:41:31.580Z,101159.34
2022-11-12T16:44:17.030Z,101161.16
2022-11-12T16:47:03.878Z,101161.00
2022-11-12T16:49:49.136Z,101163.34
2022-11-12T16:52:34.793Z,101160.94
2022-11-12T16:55:21.381Z,101158.53
2022-11-12T16:58:06.596Z,101160.84
2022-11-12T17:00:52.017Z,101175.91
2022-11-12T17:03:37.045Z,101182.03
2022-11-12T17:06:24.162Z,101177.28
2022-11-12T17:09:11.734Z,101171.47
2022-11-12T17:11:56.883Z,101140.81
2022-11-12T17:14:42.400Z,101166.69
2022-11-12T17:17:27.716Z,101146.38
2022-11-12T17:20:12.922Z,101136.50
2022-11-12T17:22:58.338Z,101086.25
2022-11-12T17:25:43.984Z,101103.66
2022-11-12T17:28:30.503Z,101128.81
2022-11-12T17:31:21.599Z,101121.91
2022-11-12T17:34:07.181Z,101160.84
2022-11-12T17:36:52.598Z,101158.63
2022-11-12T17:39:38.116Z,101152.16
2022-11-12T17:42:23.376Z,101117.00
2022-11-12T17:45:09.461Z,101117.72
2022-11-12T17:47:54.810Z,101144.16
2022-11-12T17:50:40.386Z,101104.88
2022-11-12T17:53:26.098Z,101113.03
2022-11-12T17:56:14.824Z,101084.00
2022-11-12T17:59:01.432Z,101098.09
2022-11-12T18:01:46.477Z,101121.72
2022-11-12T18:04:32.722Z,101096.25
2022-11-12T18:07:18.710Z,101124.47
2022-11-12T18:10:04.964Z,101096.09
2022-11-12T18:12:52.173Z,101130.38
2022-11-12T18:15:37.612Z,101141.69
2022-11-12T18:18:23.394Z,101108.59
2022-11-12T18:21:08.569Z,101099.97
2022-11-12T18:23:54.163Z,101120.59
2022-11-12T18:26:39.375Z,101130.47
2022-11-12T18:29:24.605Z,101122.09
2022-11-12T18:32:09.999Z,101155.22
2022-11-12T18:34:55.514Z,101067.50
2022-11-12T18:37:41.181Z,101107.94
2022-11-12T18:40:27.064Z,101092.38
2022-11-12T18:43:12.450Z,101101.91
2022-11-12T18:46:00.968Z,101122.47
2022-11-12T18:48:47.350Z,101110.47
2022-11-12T18:51:32.902Z,101118.22
2022-11-12T18:54:18.269Z,101110.47
2022-11-12T18:57:03.772Z,101118.81
2022-11-12T18:59:49.483Z,101107.56
2022-11-12T19:02:34.999Z,101086.16
2022-11-12T19:05:22.009Z,101107.06
2022-11-12T19:08:07.456Z,101133.03
2022-11-12T19:11:00.248Z,101130.53
2022-11-12T19:13:45.777Z,101121.47
2022-11-12T19:16:31.301Z,101114.56
2022-11-12T19:19:16.646Z,101116.31
2022-11-12T19:22:01.839Z,101076.31
2022-11-12T19:24:47.239Z,101065.72
2022-11-12T19:27:32.374Z,101108.41
2022-11-12T19:30:17.839Z,101109.44
2022-11-12T19:33:03.094Z,101078.25
2022-11-12T19:35:48.696Z,101072.53
2022-11-12T19:38:33.952Z,101113.69
2022-11-12T19:41:20.195Z,101090.34
2022-11-12T19:44:05.750Z,101085.47
2022-11-12T19:46:51.148Z,101091.88
2022-11-12T19:49:36.669Z,101089.44
2022-11-12T19:52:22.460Z,101084.66
2022-11-12T19:55:07.959Z,101093.34
2022-11-12T19:57:53.521Z,101100.75
2022-11-12T20:00:38.765Z,101076.97
2022-11-12T20:03:26.159Z,101080.44
2022-11-12T20:06:13.733Z,101090.59
2022-11-12T20:09:03.851Z,101064.09
2022-11-12T20:11:50.742Z,101096.25
2022-11-12T20:14:35.969Z,101061.78
2022-11-12T20:17:21.474Z,101047.44
2022-11-12T20:20:09.380Z,101062.88
2022-11-12T20:22:54.651Z,101078.97
2022-11-12T20:25:40.054Z,101010.19
2022-11-12T20:28:25.301Z,101079.38
2022-11-12T20:31:16.979Z,101059.69
2022-11-12T20:34:02.111Z,101068.72
2022-11-12T20:36:47.395Z,101071.75
2022-11-12T20:39:32.770Z,101065.78
2022-11-12T20:42:18.158Z,101041.16
2022-11-12T20:45:03.380Z,101055.94
2022-11-12T20:47:48.622Z,101051.22
2022-11-12T20:50:34.148Z,101053.84
2022-11-12T20:53:19.588Z,101049.47
2022-11-12T20:56:06.897Z,101030.56
2022-11-12T20:58:52.975Z,101047.66
2022-11-12T21:01:38.780Z,100966.66
2022-11-12T21:04:24.830Z,101056.78
2022-11-12T21:07:10.456Z,101034.41
2022-11-12T21:09:55.955Z,101057.59
2022-11-12T21:12:41.574Z,101033.13
2022-11-12T21:15:27.088Z,101059.84
2022-11-12T21:18:12.671Z,101024.47
2022-11-12T21:21:11.959Z,101048.28
2022-11-12T21:24:00.612Z,101022.94
2022-11-12T21:26:49.732Z,101046.94
2022-11-12T21:29:34.982Z,101050.69
2022-11-12T21:32:20.004Z,101045.81
2022-11-12T21:35:05.816Z,101034.09
2022-11-12T21:37:50.869Z,101020.69
2022-11-12T21:40:36.256Z,101037.03
2022-11-12T21:43:21.510Z,101046.50
2022-11-12T21:46:08.364Z,101028.63
2022-11-12T21:48:55.519Z,101043.94
2022-11-12T21:51:41.196Z,101006.72
2022-11-12T21:54:26.713Z,100994.78
2022-11-12T21:57:17.613Z,101033.47
2022-11-12T22:00:34.484Z,101039.34
2022-11-12T22:03:10.333Z,101032.66
2022-11-12T22:05:55.682Z,100994.31
2022-11-12T22:08:41.769Z,101009.34
2022-11-12T22:11:27.590Z,101030.16
2022-11-12T22:14:12.692Z,101023.44
2022-11-12T22:16:58.156Z,101021.31
2022-11-12T22:19:43.222Z,101014.50
2022-11-12T22:22:28.656Z,101018.91
2022-11-12T22:25:14.117Z,100987.16
2022-11-12T22:27:59.660Z,101002.09
2022-11-12T22:30:45.271Z,101023.44
2022-11-12T22:33:30.686Z,100958.22
2022-11-12T22:36:17.989Z,101012.91
2022-11-12T22:39:04.810Z,101002.22
2022-11-12T22:41:50.056Z,100948.56
2022-11-12T22:44:35.259Z,101006.63
2022-11-12T22:47:20.716Z,100988.69
2022-11-12T22:50:06.824Z,100995.63
2022-11-12T22:52:52.377Z,101006.44
2022-11-12T22:55:37.529Z,100924.38
2022-11-12T22:58:23.001Z,101003.66
2022-11-12T23:01:16.605Z,100965.00
2022-11-12T23:04:04.544Z,100966.91
2022-11-12T23:06:49.886Z,100963.19
2022-11-12T23:09:35.038Z,100963.13
2022-11-12T23:12:20.489Z,100972.22
2022-11-12T23:15:06.586Z,100971.16
2022-11-12T23:17:51.851Z,100971.34
2022-11-12T23:20:37.120Z,100974.38
2022-11-12T23:23:22.651Z,100966.28
2022-11-12T23:26:09.459Z,100959.06
2022-11-12T23:28:54.799Z,100951.94
2022-11-12T23:31:40.397Z,100946.84
2022-11-12T23:34:25.769Z,100922.47
2022-11-12T23:37:10.892Z,100925.09
2022-11-12T23:39:55.968Z,100906.69
2022-11-12T23:42:41.112Z,100932.56
2022-11-12T23:45:26.289Z,100919.44
2022-11-12T23:48:11.439Z,100880.59
2022-11-12T23:51:05.730Z,100905.44
2022-11-12T23:53:51.210Z,100930.75
2022-11-12T23:56:36.729Z,100919.69
2022-11-12T23:59:22.156Z,100915.78
